Time;durP1;ratioP1;P1;durP2;ratioP2;P2;SDS_P1;SDS_P2;PMS_P1;PMS_P2;Temp;Humidity;BMP_temperature;BMP_pressure;BME280_temperature;BME280_humidity;BME280_pressure;Samples;Min_cycle;Max_cycle;Signal;HPM_P1;HPM_P2
2021/12/02 00:00:54;;;;;;;1.70;1.60;;;7.00;52.90;;;;;;5019947;28;20496;-81
2021/12/02 00:03:20;;;;;;;3.17;2.10;;;7.00;53.00;;;;;;4995916;28;20160;-81
2021/12/02 00:05:48;;;;;;;2.25;1.92;;;7.00;52.90;;;;;;5017826;28;20125;-81
2021/12/02 00:08:19;;;;;;;2.65;2.10;;;7.00;52.90;;;;;;5029529;28;20037;-81
2021/12/02 00:10:54;;;;;;;2.40;1.92;;;7.00;52.90;;;;;;5029374;28;20021;-81
2021/12/02 00:21:53;;;;;;;2.45;1.65;;;6.90;52.90;;;;;;5029177;28;20440;-80
2021/12/02 00:24:25;;;;;;;2.28;1.55;;;6.90;52.90;;;;;;5029381;28;20033;-80
2021/12/02 00:27:00;;;;;;;1.40;1.30;;;6.90;52.90;;;;;;5029841;28;20025;-80
2021/12/02 00:29:31;;;;;;;1.42;1.30;;;6.90;53.00;;;;;;5018527;28;20036;-81
2021/12/02 00:32:07;;;;;;;1.38;1.27;;;7.00;53.10;;;;;;5029149;28;20136;-81
2021/12/02 00:34:36;;;;;;;1.67;1.40;;;6.90;53.00;;;;;;5018767;28;20053;-81
2021/12/02 00:37:04;;;;;;;1.50;1.40;;;6.90;53.10;;;;;;5028749;28;20033;-80
2021/12/02 00:39:31;;;;;;;1.92;1.40;;;7.00;53.10;;;;;;5029055;28;20037;-81
2021/12/02 00:41:58;;;;;;;2.60;1.30;;;6.90;53.00;;;;;;5018698;28;20041;-81
2021/12/02 00:44:23;;;;;;;1.70;1.33;;;6.90;53.00;;;;;;5001487;28;20029;-83
2021/12/02 00:46:52;;;;;;;2.05;1.20;;;7.00;53.20;;;;;;5024480;28;20025;-83
2021/12/02 00:49:19;;;;;;;2.00;1.50;;;6.90;53.10;;;;;;5029717;28;20376;-85
2021/12/02 00:51:56;;;;;;;1.95;1.10;;;6.90;53.20;;;;;;5017195;28;20504;-83
2021/12/02 00:54:24;;;;;;;1.60;1.20;;;6.90;53.20;;;;;;4999223;28;20179;-83
2021/12/02 00:56:54;;;;;;;1.67;1.20;;;6.90;53.20;;;;;;5001618;28;20112;-83
2021/12/02 00:59:22;;;;;;;2.20;1.70;;;6.90;53.20;;;;;;5003199;28;20032;-83
2021/12/02 01:01:49;;;;;;;1.63;1.25;;;6.90;53.20;;;;;;5029094;28;20543;-84
2021/12/02 01:04:24;;;;;;;1.20;1.10;;;6.90;53.20;;;;;;5006101;28;20137;-83
2021/12/02 01:06:51;;;;;;;2.38;1.42;;;6.90;53.20;;;;;;5017788;28;20593;-83
2021/12/02 01:09:18;;;;;;;1.42;1.33;;;6.90;53.20;;;;;;5001760;28;20025;-83
2021/12/02 01:11:44;;;;;;;2.05;1.27;;;6.90;53.20;;;;;;5017992;28;20098;-83
2021/12/02 01:14:11;;;;;;;3.28;1.40;;;6.90;53.20;;;;;;5002487;28;20025;-83
2021/12/02 01:16:37;;;;;;;1.40;1.30;;;6.90;53.30;;;;;;5017295;28;20034;-82
2021/12/02 01:19:05;;;;;;;1.65;1.55;;;6.90;53.30;;;;;;5016658;28;20503;-84
2021/12/02 01:21:31;;;;;;;1.77;1.25;;;6.90;53.30;;;;;;5010830;28;20029;-83
2021/12/02 01:23:59;;;;;;;1.83;1.17;;;6.80;53.20;;;;;;5006447;28;20033;-83
2021/12/02 01:26:28;;;;;;;1.35;1.25;;;6.90;53.30;;;;;;5017972;28;20499;-82
2021/12/02 01:28:56;;;;;;;1.52;1.02;;;6.80;53.20;;;;;;5017293;28;20026;-83
2021/12/02 01:31:22;;;;;;;1.80;1.30;;;6.90;53.30;;;;;;5033357;28;20045;-82
2021/12/02 01:33:50;;;;;;;1.42;1.10;;;6.80;53.30;;;;;;5028234;28;20029;-83
2021/12/02 01:36:18;;;;;;;1.23;1.08;;;6.90;53.60;;;;;;5027617;28;20441;-83
2021/12/02 01:38:43;;;;;;;1.30;1.20;;;6.90;53.50;;;;;;5018085;28;20042;-83
2021/12/02 01:41:09;;;;;;;1.65;0.90;;;6.80;54.20;;;;;;5001343;28;20035;-82
2021/12/02 01:43:50;;;;;;;2.15;1.20;;;6.90;53.80;;;;;;5017993;28;20033;-82
2021/12/02 01:46:20;;;;;;;1.55;1.00;;;6.90;53.90;;;;;;5028011;28;20472;-83
2021/12/02 01:48:54;;;;;;;1.27;0.98;;;6.80;53.80;;;;;;5031031;28;20045;-83
2021/12/02 01:51:25;;;;;;;1.40;1.05;;;6.90;53.70;;;;;;5028117;28;20034;-81
2021/12/02 01:54:02;;;;;;;2.00;1.15;;;6.90;53.70;;;;;;5027812;28;20040;-82
2021/12/02 01:56:31;;;;;;;1.00;0.90;;;6.90;53.60;;;;;;5016460;28;20037;-81
2021/12/02 01:59:10;;;;;;;1.10;1.00;;;6.90;53.60;;;;;;5028084;28;20160;-82
2021/12/02 02:01:40;;;;;;;1.17;0.90;;;6.90;53.40;;;;;;5027681;28;20037;-82
2021/12/02 02:04:07;;;;;;;0.90;0.90;;;6.90;53.40;;;;;;5027629;28;20037;-81
2021/12/02 02:06:44;;;;;;;1.13;1.00;;;6.90;53.40;;;;;;5027487;28;20045;-82
2021/12/02 02:09:11;;;;;;;1.67;0.98;;;6.80;53.40;;;;;;5027835;28;20451;-82
2021/12/02 02:11:37;;;;;;;1.02;0.90;;;6.80;53.20;;;;;;5027745;28;20063;-82
2021/12/02 02:14:06;;;;;;;0.90;0.85;;;6.80;53.40;;;;;;5013629;28;20430;-82
2021/12/02 02:16:33;;;;;;;1.20;0.80;;;6.80;53.40;;;;;;5027811;28;20036;-82
2021/12/02 02:18:59;;;;;;;1.00;0.90;;;6.90;53.40;;;;;;5022493;28;20547;-83
2021/12/02 02:21:25;;;;;;;1.10;1.10;;;6.80;53.30;;;;;;5015262;28;21001;-81
2021/12/02 02:23:56;;;;;;;1.25;0.90;;;6.90;53.40;;;;;;5027367;28;20037;-85
2021/12/02 02:26:26;;;;;;;0.82;0.68;;;6.90;53.50;;;;;;5027429;28;20040;-84
2021/12/02 02:28:55;;;;;;;1.27;0.80;;;6.80;53.40;;;;;;5007923;28;20040;-84
2021/12/02 02:31:22;;;;;;;0.70;0.70;;;6.90;53.40;;;;;;5026554;28;20045;-82
2021/12/02 02:33:49;;;;;;;1.58;0.93;;;6.90;53.40;;;;;;5027781;28;20041;-84
2021/12/02 02:36:21;;;;;;;1.45;0.88;;;6.80;53.30;;;;;;5027518;28;20071;-84
2021/12/02 02:38:58;;;;;;;0.98;0.90;;;6.90;53.30;;;;;;5031212;28;20030;-84
2021/12/02 02:41:27;;;;;;;0.70;0.70;;;6.90;53.30;;;;;;5031367;28;20037;-84
2021/12/02 02:43:57;;;;;;;1.02;0.90;;;6.80;53.30;;;;;;5031624;28;20041;-83
2021/12/02 02:46:33;;;;;;;0.88;0.70;;;6.80;53.30;;;;;;5027170;28;20037;-84
2021/12/02 02:49:00;;;;;;;2.50;0.85;;;6.90;53.30;;;;;;5027641;28;20026;-85
2021/12/02 02:51:29;;;;;;;0.80;0.80;;;6.90;53.30;;;;;;5016862;28;20412;-83
2021/12/02 02:53:57;;;;;;;0.60;0.60;;;6.90;53.30;;;;;;5026811;28;20029;-84
2021/12/02 02:56:27;;;;;;;1.23;0.82;;;6.90;53.30;;;;;;5016557;28;20065;-83
2021/12/02 02:59:10;;;;;;;0.70;0.70;;;6.80;53.10;;;;;;5021181;28;20037;-84
2021/12/02 03:02:00;;;;;;;1.25;0.70;;;6.80;53.20;;;;;;5015919;28;20357;-84
2021/12/02 03:17:30;;;;;;;0.60;0.60;;;6.80;53.00;;;;;;5028111;28;20376;-83
2021/12/02 03:19:57;;;;;;;0.88;0.88;;;6.80;53.00;;;;;;5027348;28;20044;-83
2021/12/02 03:22:23;;;;;;;0.93;0.70;;;6.80;52.90;;;;;;5026437;28;20033;-83
2021/12/02 03:24:49;;;;;;;1.00;0.90;;;6.80;52.90;;;;;;5026217;28;20080;-84
2021/12/02 03:27:15;;;;;;;1.15;1.00;;;6.80;52.90;;;;;;5003208;28;20037;-83
2021/12/02 03:29:41;;;;;;;1.75;1.00;;;6.80;52.80;;;;;;5026507;28;20032;-85
2021/12/02 03:32:08;;;;;;;1.45;0.70;;;6.80;52.90;;;;;;5006548;28;20053;-87
2021/12/02 03:34:35;;;;;;;1.00;0.80;;;6.80;52.80;;;;;;5010539;28;20032;-85
2021/12/02 03:37:02;;;;;;;0.98;0.77;;;6.80;52.90;;;;;;5016019;28;20080;-83
2021/12/02 03:39:28;;;;;;;0.77;0.77;;;6.80;52.90;;;;;;5030541;28;20464;-84
2021/12/02 03:41:54;;;;;;;0.50;0.50;;;6.80;53.60;;;;;;5039100;28;20060;-89
2021/12/02 03:44:21;;;;;;;1.50;0.77;;;6.80;53.10;;;;;;5041232;28;20407;-86
2021/12/02 03:46:47;;;;;;;0.70;0.70;;;6.80;53.00;;;;;;5033087;28;20033;-84
2021/12/02 03:49:13;;;;;;;2.67;0.60;;;6.80;53.10;;;;;;5029841;28;20036;-86
2021/12/02 03:51:39;;;;;;;1.35;0.60;;;6.80;53.10;;;;;;5029418;28;20029;-89
2021/12/02 03:54:05;;;;;;;0.70;0.70;;;6.80;53.00;;;;;;5029797;28;20026;-87
2021/12/02 03:56:31;;;;;;;1.23;0.80;;;6.80;53.00;;;;;;5029770;28;20090;-88
2021/12/02 03:58:57;;;;;;;0.60;0.60;;;6.80;53.00;;;;;;5018114;28;20052;-84
2021/12/02 04:01:23;;;;;;;0.60;0.60;;;6.80;53.00;;;;;;5001398;28;20053;-86
2021/12/02 04:03:50;;;;;;;0.90;0.73;;;6.80;53.10;;;;;;5029232;28;20037;-87
2021/12/02 04:06:16;;;;;;;0.70;0.70;;;6.80;53.00;;;;;;5028655;28;20069;-87
2021/12/02 04:08:50;;;;;;;2.17;0.88;;;6.80;52.90;;;;;;5028927;28;20747;-84
2021/12/02 04:14:11;;;;;;;0.65;0.65;;;6.80;52.90;;;;;;5017663;28;20054;-86
2021/12/02 04:16:39;;;;;;;0.68;0.60;;;6.80;52.90;;;;;;5013321;28;20495;-84
2021/12/02 04:19:09;;;;;;;1.27;0.80;;;6.80;52.80;;;;;;5027838;28;20418;-86
2021/12/02 04:21:35;;;;;;;0.70;0.60;;;6.80;52.80;;;;;;5017007;28;20064;-85
2021/12/02 04:24:02;;;;;;;0.60;0.60;;;6.80;52.80;;;;;;5027657;28;20038;-83
2021/12/02 04:26:28;;;;;;;1.02;0.70;;;6.80;52.80;;;;;;5027221;28;20072;-86
2021/12/02 04:28:54;;;;;;;0.60;0.60;;;6.80;52.80;;;;;;5024908;28;20030;-84
2021/12/02 04:31:21;;;;;;;1.00;0.70;;;6.80;52.70;;;;;;5025537;28;20052;-83
2021/12/02 04:33:46;;;;;;;1.38;0.90;;;6.80;52.70;;;;;;5026914;28;20091;-82
2021/12/02 04:36:12;;;;;;;0.70;0.70;;;6.90;52.70;;;;;;5029116;28;20507;-82
2021/12/02 04:38:38;;;;;;;1.23;0.90;;;6.80;52.70;;;;;;5028989;28;20036;-82
2021/12/02 04:41:04;;;;;;;0.80;0.80;;;6.80;52.60;;;;;;5014592;28;20080;-84
2021/12/02 04:43:30;;;;;;;1.25;0.90;;;6.90;52.80;;;;;;5028757;28;20042;-81
2021/12/02 04:45:56;;;;;;;0.70;0.70;;;6.80;52.60;;;;;;5027755;28;20030;-81
2021/12/02 04:48:22;;;;;;;0.73;0.73;;;6.90;52.70;;;;;;5027806;28;20052;-80
2021/12/02 04:50:49;;;;;;;0.77;0.77;;;6.80;52.80;;;;;;5033477;28;20148;-80
2021/12/02 04:53:16;;;;;;;0.90;0.90;;;6.80;52.80;;;;;;5027418;28;20040;-79
2021/12/02 04:55:42;;;;;;;1.13;1.02;;;6.80;52.70;;;;;;5028010;28;20076;-78
2021/12/02 04:58:08;;;;;;;1.58;0.90;;;6.80;52.70;;;;;;5028180;28;20068;-78
2021/12/02 05:00:34;;;;;;;0.85;0.80;;;6.80;52.80;;;;;;5027543;28;20446;-80
2021/12/02 05:03:00;;;;;;;1.33;0.90;;;6.90;52.90;;;;;;4987604;28;20041;-81
2021/12/02 05:05:26;;;;;;;0.88;0.77;;;6.80;52.90;;;;;;5013622;28;20037;-80
2021/12/02 05:07:55;;;;;;;1.13;1.02;;;6.80;52.90;;;;;;5028932;28;20053;-81
2021/12/02 05:10:22;;;;;;;1.17;1.08;;;6.80;52.90;;;;;;5018686;28;21217;-80
2021/12/02 05:12:49;;;;;;;1.20;1.10;;;6.80;52.80;;;;;;5017462;28;20095;-80
2021/12/02 05:15:15;;;;;;;1.98;1.10;;;6.80;52.80;;;;;;4999552;28;20029;-80
2021/12/02 05:17:41;;;;;;;1.33;1.23;;;6.80;52.90;;;;;;5018540;28;20096;-80
2021/12/02 05:20:07;;;;;;;1.42;1.33;;;6.80;52.90;;;;;;5017407;28;20083;-80
2021/12/02 05:22:33;;;;;;;1.42;1.02;;;6.80;52.90;;;;;;5028164;28;20554;-80
2021/12/02 05:24:59;;;;;;;1.40;1.30;;;6.80;52.90;;;;;;5028317;28;20033;-81
2021/12/02 05:27:26;;;;;;;1.27;1.10;;;6.80;53.00;;;;;;5027989;28;21047;-80
2021/12/02 05:29:52;;;;;;;1.40;1.30;;;6.80;52.90;;;;;;5028657;28;20045;-81
2021/12/02 05:32:18;;;;;;;2.63;1.23;;;6.80;52.90;;;;;;5028598;28;20057;-81
2021/12/02 05:34:47;;;;;;;1.42;1.27;;;6.80;52.90;;;;;;5027490;28;20060;-80
2021/12/02 05:37:14;;;;;;;2.90;1.33;;;6.80;52.80;;;;;;5027693;28;20064;-82
2021/12/02 05:39:40;;;;;;;1.83;1.60;;;6.80;52.90;;;;;;5016812;28;20025;-81
2021/12/02 05:42:06;;;;;;;1.45;1.30;;;6.80;52.80;;;;;;5027842;28;20687;-81
2021/12/02 05:44:32;;;;;;;3.13;1.50;;;6.80;52.90;;;;;;5028000;28;20037;-83
2021/12/02 05:46:58;;;;;;;1.30;1.10;;;6.80;52.80;;;;;;5027536;28;20744;-81
2021/12/02 05:49:24;;;;;;;1.60;1.30;;;6.80;52.80;;;;;;5027871;28;20129;-80
2021/12/02 05:51:50;;;;;;;3.03;1.70;;;6.80;52.80;;;;;;5020939;28;20038;-81
2021/12/02 05:54:16;;;;;;;1.50;1.40;;;6.80;52.70;;;;;;5017388;28;20510;-81
2021/12/02 05:56:42;;;;;;;1.60;1.17;;;6.80;52.70;;;;;;5017413;28;20029;-79
2021/12/02 05:59:08;;;;;;;1.88;1.48;;;6.80;52.70;;;;;;5001223;28;20033;-80
2021/12/02 06:01:34;;;;;;;1.63;1.40;;;6.80;52.70;;;;;;5021437;28;20037;-82
2021/12/02 06:04:01;;;;;;;1.38;1.20;;;6.80;52.60;;;;;;5016564;28;20033;-81
2021/12/02 06:06:27;;;;;;;9.60;4.85;;;6.80;52.50;;;;;;5022090;28;20033;-81
2021/12/02 06:08:53;;;;;;;6.88;3.35;;;6.80;52.40;;;;;;5027472;28;20028;-85
2021/12/02 06:11:19;;;;;;;6.50;3.78;;;6.80;52.40;;;;;;5015976;28;20034;-83
2021/12/02 06:13:46;;;;;;;5.22;2.85;;;6.80;52.40;;;;;;5027322;28;20099;-82
2021/12/02 06:16:13;;;;;;;4.93;3.15;;;6.80;52.30;;;;;;5026917;28;20509;-81
2021/12/02 06:18:39;;;;;;;5.85;3.38;;;6.90;52.40;;;;;;5027422;28;20041;-83
2021/12/02 06:21:05;;;;;;;4.40;2.55;;;6.90;52.50;;;;;;5026930;28;20041;-82
2021/12/02 06:23:31;;;;;;;4.82;2.50;;;6.90;52.40;;;;;;5025780;28;20133;-81
2021/12/02 06:25:57;;;;;;;4.18;2.20;;;6.90;52.40;;;;;;5025252;28;20124;-82
2021/12/02 06:28:23;;;;;;;3.58;2.25;;;6.90;52.40;;;;;;5025501;28;20064;-82
2021/12/02 06:30:49;;;;;;;3.55;2.55;;;6.90;52.40;;;;;;5011334;28;20156;-80
2021/12/02 06:33:15;;;;;;;3.80;1.90;;;6.90;52.40;;;;;;5026083;28;20109;-83
2021/12/02 06:35:42;;;;;;;2.38;1.80;;;6.90;52.50;;;;;;5025880;28;20037;-80
2021/12/02 06:38:08;;;;;;;2.50;1.80;;;6.90;52.40;;;;;;5026224;28;20558;-81
2021/12/02 06:40:35;;;;;;;3.60;1.85;;;6.90;52.40;;;;;;5015169;28;20041;-78
2021/12/02 06:43:02;;;;;;;1.63;1.40;;;6.90;52.30;;;;;;5015329;28;20508;-81
2021/12/02 06:45:28;;;;;;;1.70;1.60;;;6.90;52.30;;;;;;5007488;28;20040;-80
2021/12/02 06:47:58;;;;;;;2.03;1.45;;;6.90;52.40;;;;;;5016424;28;20029;-78
2021/12/02 06:50:25;;;;;;;2.45;1.40;;;7.00;52.30;;;;;;5026691;28;20049;-80
2021/12/02 06:52:53;;;;;;;2.33;1.70;;;7.00;52.40;;;;;;5006061;28;20084;-81
2021/12/02 06:55:19;;;;;;;1.35;1.23;;;7.00;52.40;;;;;;5026789;28;20512;-79
2021/12/02 06:57:46;;;;;;;2.67;1.40;;;7.00;52.40;;;;;;5026386;28;20040;-81
2021/12/02 07:00:15;;;;;;;1.70;1.20;;;7.00;52.30;;;;;;5026290;28;20043;-81
2021/12/02 07:02:42;;;;;;;3.70;1.73;;;7.00;52.40;;;;;;5026522;28;20034;-81
2021/12/02 07:05:11;;;;;;;5.03;1.30;;;7.00;52.90;;;;;;5026350;28;20069;-80
2021/12/02 07:07:37;;;;;;;2.25;1.48;;;7.00;54.60;;;;;;5026781;28;20443;-81
2021/12/02 07:10:09;;;;;;;1.42;1.15;;;7.00;55.20;;;;;;5026711;28;20026;-81
2021/12/02 07:12:38;;;;;;;2.40;1.60;;;7.00;54.20;;;;;;5029758;28;20061;-78
2021/12/02 07:15:09;;;;;;;2.42;1.20;;;7.00;53.30;;;;;;5033520;28;20033;-78
2021/12/02 07:17:35;;;;;;;3.95;1.55;;;7.00;52.40;;;;;;5033622;28;20033;-78
2021/12/02 07:20:02;;;;;;;2.65;1.48;;;7.00;51.80;;;;;;5033789;28;20108;-78
2021/12/02 07:22:28;;;;;;;2.72;1.45;;;6.90;51.30;;;;;;5033198;28;20144;-78
2021/12/02 07:24:54;;;;;;;5.18;2.05;;;6.90;51.10;;;;;;5034586;28;20642;-77
2021/12/02 07:27:20;;;;;;;2.58;1.50;;;6.90;50.60;;;;;;5034767;28;20030;-78
2021/12/02 07:29:46;;;;;;;1.90;1.50;;;6.90;50.60;;;;;;5032887;28;20637;-79
2021/12/02 07:32:12;;;;;;;1.58;1.48;;;6.90;50.50;;;;;;5034112;28;20057;-78
2021/12/02 07:34:45;;;;;;;2.38;1.38;;;6.80;50.30;;;;;;5033832;28;20105;-77
2021/12/02 07:37:15;;;;;;;1.98;1.38;;;6.80;50.40;;;;;;5030352;28;20519;-78
2021/12/02 07:39:42;;;;;;;2.92;1.50;;;6.80;54.00;;;;;;5018232;28;20025;-77
2021/12/02 07:42:08;;;;;;;3.95;1.80;;;6.90;54.10;;;;;;5019896;28;20042;-78
2021/12/02 07:44:35;;;;;;;3.88;1.60;;;6.80;54.40;;;;;;5029288;28;20072;-80
2021/12/02 07:47:03;;;;;;;1.77;1.60;;;6.90;55.50;;;;;;5029070;28;20266;-78
2021/12/02 07:49:29;;;;;;;3.08;1.70;;;6.90;54.30;;;;;;5029327;28;20029;-76
2021/12/02 07:51:59;;;;;;;2.65;1.40;;;6.90;53.20;;;;;;5029393;28;20060;-74
2021/12/02 07:54:26;;;;;;;2.60;1.90;;;6.90;52.40;;;;;;5029160;28;20049;-77
2021/12/02 07:56:53;;;;;;;3.00;1.63;;;6.80;51.80;;;;;;5028805;28;20067;-77
2021/12/02 07:59:20;;;;;;;2.47;1.73;;;6.80;51.40;;;;;;5029097;28;20503;-78
2021/12/02 08:01:48;;;;;;;3.10;1.83;;;6.80;51.10;;;;;;5029098;28;20041;-81
2021/12/02 08:04:14;;;;;;;3.47;2.17;;;6.80;51.00;;;;;;5028866;28;20033;-80
2021/12/02 08:06:40;;;;;;;4.75;1.88;;;6.80;51.10;;;;;;5018566;28;20075;-79
2021/12/02 08:09:06;;;;;;;1.52;1.40;;;6.70;51.00;;;;;;5023764;28;20049;-80
2021/12/02 08:11:33;;;;;;;2.30;1.65;;;6.70;51.10;;;;;;5027941;28;20048;-80
2021/12/02 08:13:59;;;;;;;2.13;1.60;;;6.80;51.20;;;;;;5028881;28;20067;-78
2021/12/02 08:16:26;;;;;;;3.25;1.80;;;6.70;51.10;;;;;;5018163;28;20504;-80
2021/12/02 08:18:52;;;;;;;3.20;1.70;;;6.70;51.10;;;;;;5028883;28;20052;-81
2021/12/02 08:21:18;;;;;;;3.15;2.00;;;6.70;51.10;;;;;;5028917;28;20037;-80
2021/12/02 08:23:43;;;;;;;2.75;1.95;;;6.70;51.00;;;;;;5005397;28;20036;-81
2021/12/02 08:26:12;;;;;;;3.83;2.15;;;6.70;51.00;;;;;;5027331;28;20052;-80
2021/12/02 08:28:38;;;;;;;4.03;1.70;;;6.70;51.10;;;;;;5028970;28;21348;-78
2021/12/02 08:31:04;;;;;;;2.92;1.80;;;6.70;51.10;;;;;;5018645;28;20800;-79
2021/12/02 08:33:31;;;;;;;5.75;1.90;;;6.70;50.90;;;;;;5029059;28;20404;-80
2021/12/02 08:35:57;;;;;;;8.00;1.80;;;6.60;50.80;;;;;;5028794;28;20527;-79
2021/12/02 08:38:31;;;;;;;2.78;1.80;;;6.60;50.70;;;;;;5028441;28;20067;-78
2021/12/02 08:40:58;;;;;;;2.58;2.00;;;6.60;50.70;;;;;;5018393;28;20187;-79
2021/12/02 08:43:24;;;;;;;3.15;1.75;;;6.60;50.60;;;;;;5028734;28;20033;-80
2021/12/02 08:45:50;;;;;;;3.30;1.90;;;6.60;50.60;;;;;;5028999;28;20615;-77
2021/12/02 08:48:16;;;;;;;5.60;3.05;;;6.60;50.60;;;;;;5028527;28;20112;-79
2021/12/02 08:50:44;;;;;;;7.65;3.35;;;6.60;50.70;;;;;;5017065;28;20041;-76
2021/12/02 08:53:10;;;;;;;6.32;3.15;;;6.60;50.70;;;;;;5028798;28;20025;-78
2021/12/02 08:55:37;;;;;;;5.53;3.08;;;6.50;51.30;;;;;;5028312;28;20040;-78
2021/12/02 08:58:06;;;;;;;4.90;2.85;;;6.50;50.70;;;;;;5028370;28;20037;-78
2021/12/02 09:00:35;;;;;;;3.35;2.50;;;6.50;50.70;;;;;;5028022;28;20116;-78
2021/12/02 09:03:02;;;;;;;3.55;2.30;;;6.50;50.70;;;;;;5017503;28;20129;-78
2021/12/02 09:05:28;;;;;;;6.13;2.60;;;6.50;50.70;;;;;;5019816;28;20029;-80
2021/12/02 09:07:54;;;;;;;5.13;2.30;;;6.50;50.70;;;;;;5028437;28;20056;-78
2021/12/02 09:10:21;;;;;;;4.07;2.38;;;6.50;50.80;;;;;;5027237;28;20032;-77
2021/12/02 09:12:49;;;;;;;3.70;2.30;;;6.50;50.80;;;;;;5028080;28;20075;-77
2021/12/02 09:15:16;;;;;;;5.05;2.53;;;6.50;50.90;;;;;;5028490;28;20127;-86
2021/12/02 09:17:43;;;;;;;3.42;2.45;;;6.50;50.90;;;;;;5017376;28;20135;-84
2021/12/02 09:20:11;;;;;;;4.97;2.38;;;6.50;52.50;;;;;;5016243;28;20037;-91
2021/12/02 09:22:37;;;;;;;3.80;2.33;;;6.60;53.80;;;;;;5029317;28;20060;-91
2021/12/02 09:25:05;;;;;;;3.55;2.20;;;6.50;53.80;;;;;;5012522;28;20022;-88
2021/12/02 09:27:31;;;;;;;5.13;2.47;;;6.50;54.60;;;;;;4999949;28;20029;-89
2021/12/02 09:29:57;;;;;;;4.32;2.85;;;6.50;55.10;;;;;;5027226;28;20048;-88
2021/12/02 09:32:23;;;;;;;7.60;2.40;;;6.50;55.10;;;;;;5018680;28;20049;-87
2021/12/02 09:34:49;;;;;;;4.35;2.22;;;6.40;54.80;;;;;;5019280;28;20175;-88
2021/12/02 09:37:15;;;;;;;6.22;2.63;;;6.40;55.00;;;;;;5001601;28;20033;-87
2021/12/02 09:39:41;;;;;;;4.82;2.70;;;6.40;55.20;;;;;;5001386;28;20400;-87
2021/12/02 09:42:10;;;;;;;3.47;2.25;;;6.40;55.30;;;;;;5029879;28;20025;-89
2021/12/02 09:44:37;;;;;;;4.03;2.13;;;6.40;55.00;;;;;;5018316;28;20482;-89
2021/12/02 09:47:04;;;;;;;3.83;2.40;;;6.40;54.70;;;;;;5027366;28;20026;-89
2021/12/02 09:49:30;;;;;;;3.58;2.22;;;6.40;54.30;;;;;;5027403;28;20377;-89
2021/12/02 09:52:03;;;;;;;3.75;2.40;;;6.40;54.50;;;;;;5022776;28;20037;-88
2021/12/02 09:57:00;;;;;;;4.25;2.50;;;6.40;53.90;;;;;;5016897;28;20215;-88
2021/12/02 09:59:29;;;;;;;6.03;2.65;;;6.40;54.00;;;;;;5026988;28;20039;-88
2021/12/02 10:02:04;;;;;;;5.15;2.72;;;6.30;53.90;;;;;;4988979;28;20033;-86
2021/12/02 10:04:31;;;;;;;3.05;2.30;;;6.30;54.00;;;;;;5004568;28;20025;-88
2021/12/02 10:07:06;;;;;;;4.57;2.78;;;6.30;53.70;;;;;;5028076;28;20041;-90
2021/12/02 10:09:42;;;;;;;4.30;2.80;;;6.30;53.80;;;;;;5027385;28;20045;-87
2021/12/02 10:12:18;;;;;;;4.18;2.53;;;6.40;53.50;;;;;;5016487;28;20073;-89
2021/12/02 10:14:51;;;;;;;3.53;2.50;;;6.40;53.40;;;;;;5012460;28;20116;-89
2021/12/02 10:20:27;;;;;;;6.18;2.42;;;6.30;53.60;;;;;;5027016;28;20041;-88
2021/12/02 10:23:17;;;;;;;6.80;3.17;;;6.30;53.70;;;;;;5026800;28;20124;-89
2021/12/02 10:25:58;;;;;;;3.72;2.88;;;6.30;53.40;;;;;;5016296;28;20145;-89
2021/12/02 10:28:27;;;;;;;6.85;2.97;;;6.30;53.60;;;;;;5027285;28;20061;-88
2021/12/02 10:30:56;;;;;;;6.07;3.38;;;6.30;53.60;;;;;;5023079;28;20053;-88
2021/12/02 10:33:45;;;;;;;7.65;3.63;;;6.30;53.30;;;;;;5021709;28;20403;-88
2021/12/02 10:36:29;;;;;;;5.53;2.83;;;6.30;53.40;;;;;;5003021;28;20083;-88
2021/12/02 10:39:06;;;;;;;4.63;2.92;;;6.30;53.40;;;;;;5013087;28;20416;-88
2021/12/02 10:41:32;;;;;;;4.75;2.72;;;6.30;53.10;;;;;;5010101;28;20037;-89
2021/12/02 10:44:06;;;;;;;3.30;2.55;;;6.30;52.80;;;;;;5019557;28;20045;-89
2021/12/02 10:46:34;;;;;;;4.28;2.50;;;6.30;52.80;;;;;;5005213;28;20044;-88
2021/12/02 10:49:00;;;;;;;4.53;3.03;;;6.30;53.00;;;;;;5026600;28;20037;-85
2021/12/02 10:51:40;;;;;;;5.88;2.80;;;6.30;52.70;;;;;;5004808;28;20032;-87
2021/12/02 10:54:15;;;;;;;3.40;2.60;;;6.30;52.50;;;;;;5027213;28;20464;-87
2021/12/02 10:56:48;;;;;;;7.22;3.58;;;6.30;52.30;;;;;;4989227;28;20040;-86
2021/12/02 10:59:28;;;;;;;4.32;2.70;;;6.30;52.30;;;;;;4999027;28;20679;-90
2021/12/02 11:01:56;;;;;;;4.97;2.28;;;6.30;52.50;;;;;;5007431;28;20040;-89
2021/12/02 11:04:22;;;;;;;5.10;2.47;;;6.30;52.80;;;;;;5004185;28;20046;-89
2021/12/02 11:06:56;;;;;;;2.88;2.50;;;6.40;54.00;;;;;;4998131;28;20075;-90
2021/12/02 11:09:29;;;;;;;3.97;2.40;;;6.40;54.90;;;;;;5026672;28;20492;-89
2021/12/02 11:12:22;;;;;;;3.42;2.00;;;6.50;55.40;;;;;;5022956;28;20064;-88
2021/12/02 11:15:11;;;;;;;3.47;2.20;;;6.70;59.00;;;;;;5024298;28;20037;-91
2021/12/02 11:17:51;;;;;;;6.32;2.58;;;6.90;60.00;;;;;;5040454;28;20108;-95
2021/12/02 11:20:23;;;;;;;3.53;2.50;;;7.00;58.90;;;;;;5016490;28;20029;-95
2021/12/02 11:22:54;;;;;;;6.15;2.60;;;7.10;58.10;;;;;;5020656;28;20021;-88
2021/12/02 11:25:20;;;;;;;4.10;2.35;;;7.20;57.50;;;;;;5014981;28;20048;-89
2021/12/02 11:27:49;;;;;;;6.18;2.40;;;7.20;57.10;;;;;;5027452;28;20048;-89
2021/12/02 11:30:22;;;;;;;5.47;2.35;;;7.30;56.90;;;;;;5006390;28;20411;-91
2021/12/02 11:32:49;;;;;;;5.82;2.38;;;7.30;56.70;;;;;;5003988;28;20034;-90
2021/12/02 11:35:22;;;;;;;3.90;2.65;;;7.40;56.80;;;;;;5027910;28;20048;-80
2021/12/02 11:38:24;;;;;;;4.55;2.40;;;7.50;56.80;;;;;;5025629;28;20114;-80
2021/12/02 11:40:57;;;;;;;5.40;2.55;;;7.50;56.20;;;;;;5026273;28;20066;-80
2021/12/02 11:43:28;;;;;;;4.30;2.45;;;7.50;54.80;;;;;;5015149;28;20132;-80
2021/12/02 11:45:57;;;;;;;5.20;2.70;;;7.50;53.90;;;;;;5026443;28;20388;-81
2021/12/02 11:48:28;;;;;;;5.25;2.70;;;7.50;53.40;;;;;;5025596;28;20037;-80
2021/12/02 11:50:58;;;;;;;7.38;2.85;;;7.40;52.90;;;;;;5015055;28;20502;-80
2021/12/02 11:53:24;;;;;;;4.00;2.70;;;7.40;52.80;;;;;;5025890;28;20029;-82
2021/12/02 11:56:00;;;;;;;4.45;2.70;;;7.30;52.50;;;;;;5015003;28;20040;-82
2021/12/02 11:58:27;;;;;;;7.28;3.15;;;7.30;52.50;;;;;;5025947;28;20029;-82
2021/12/02 12:00:54;;;;;;;7.00;3.10;;;7.30;52.60;;;;;;5004584;28;20092;-80
2021/12/02 12:03:32;;;;;;;7.35;2.92;;;7.20;52.50;;;;;;5029299;28;20045;-79
2021/12/02 12:06:05;;;;;;;7.40;3.13;;;7.20;52.60;;;;;;5028963;28;20040;-78
2021/12/02 12:08:33;;;;;;;6.22;3.20;;;7.10;52.80;;;;;;5030405;28;20036;-77
2021/12/02 12:11:31;;;;;;;6.65;3.30;;;7.10;52.90;;;;;;5018664;28;20140;-79
2021/12/02 12:14:05;;;;;;;6.03;2.95;;;7.00;52.90;;;;;;5028452;28;20033;-79
2021/12/02 12:16:45;;;;;;;5.47;3.08;;;7.00;52.80;;;;;;5018510;28;20086;-79
2021/12/02 12:19:29;;;;;;;5.32;2.65;;;7.00;52.90;;;;;;5004085;28;20034;-79
2021/12/02 12:22:03;;;;;;;8.05;3.22;;;6.90;53.00;;;;;;5028415;28;20045;-79
2021/12/02 12:24:47;;;;;;;4.80;2.90;;;6.90;53.20;;;;;;5028685;28;20064;-79
2021/12/02 12:27:24;;;;;;;4.63;2.88;;;6.80;53.40;;;;;;5028611;28;20037;-78
2021/12/02 12:30:09;;;;;;;5.53;2.67;;;6.70;53.60;;;;;;5029310;28;20036;-79
2021/12/02 12:33:12;;;;;;;4.80;2.70;;;6.70;53.70;;;;;;5028157;28;20045;-78
2021/12/02 12:36:06;;;;;;;6.88;2.90;;;6.70;53.90;;;;;;5008467;28;20420;-79
2021/12/02 12:38:33;;;;;;;6.07;2.90;;;6.60;54.50;;;;;;5028163;28;20424;-79
2021/12/02 12:41:22;;;;;;;7.40;3.42;;;6.60;54.10;;;;;;5028740;28;20045;-79
2021/12/02 12:43:53;;;;;;;4.82;2.60;;;6.60;54.10;;;;;;5028397;28;20116;-78
2021/12/02 12:46:25;;;;;;;2.97;2.25;;;6.50;54.20;;;;;;5027818;28;20733;-78
2021/12/02 12:48:54;;;;;;;5.82;2.60;;;6.50;54.30;;;;;;5028325;28;20124;-78
2021/12/02 12:51:25;;;;;;;5.35;2.65;;;6.50;54.40;;;;;;5028780;28;20553;-78
2021/12/02 12:53:53;;;;;;;3.53;2.30;;;6.50;54.50;;;;;;5028210;28;20108;-78
2021/12/02 12:56:40;;;;;;;4.43;2.60;;;6.40;54.60;;;;;;5028102;28;20095;-78
2021/12/02 12:59:12;;;;;;;5.97;2.72;;;6.40;54.70;;;;;;5027818;28;20507;-78
2021/12/02 13:01:52;;;;;;;4.07;2.65;;;6.40;54.80;;;;;;5028010;28;20057;-79
2021/12/02 13:04:23;;;;;;;4.40;2.63;;;6.40;55.10;;;;;;5016871;28;20091;-77
2021/12/02 13:07:03;;;;;;;5.20;2.30;;;6.40;55.00;;;;;;5027960;28;20044;-77
2021/12/02 13:09:37;;;;;;;4.65;2.65;;;6.40;55.10;;;;;;5028268;28;20091;-77
2021/12/02 13:12:04;;;;;;;4.40;2.42;;;6.40;55.30;;;;;;5028326;28;20041;-77
2021/12/02 13:14:31;;;;;;;4.00;2.75;;;6.40;55.40;;;;;;5028528;28;20091;-77
2021/12/02 13:16:56;;;;;;;4.88;2.95;;;6.30;55.40;;;;;;5017887;28;20035;-76
2021/12/02 13:19:22;;;;;;;5.55;3.00;;;6.30;55.50;;;;;;5028133;28;20037;-77
2021/12/02 13:21:57;;;;;;;7.40;2.90;;;6.30;55.60;;;;;;5028353;28;20030;-77
2021/12/02 13:24:33;;;;;;;4.20;2.75;;;6.30;55.80;;;;;;4997522;28;20053;-79
2021/12/02 13:27:02;;;;;;;5.88;2.60;;;6.30;55.80;;;;;;5021963;28;20048;-78
2021/12/02 13:29:32;;;;;;;5.57;3.13;;;6.30;55.90;;;;;;5030700;28;20044;-79
2021/12/02 13:32:10;;;;;;;6.30;3.20;;;6.30;56.60;;;;;;5031181;28;20056;-78
2021/12/02 13:34:36;;;;;;;5.20;2.85;;;6.20;56.10;;;;;;5025633;28;20075;-78
2021/12/02 13:37:05;;;;;;;4.25;2.65;;;6.20;56.20;;;;;;5016594;28;20029;-78
2021/12/02 13:39:39;;;;;;;5.15;2.75;;;6.20;56.30;;;;;;5027470;28;20104;-78